createdAt,value
2023-05-04T00:00:59.732Z,9.89
2023-05-04T00:04:01.887Z,9.78
2023-05-04T00:07:03.655Z,9.70
2023-05-04T00:10:05.919Z,9.66
2023-05-04T00:13:07.668Z,9.59
2023-05-04T00:16:10.912Z,9.46
2023-05-04T00:19:13.138Z,9.47
2023-05-04T00:22:14.581Z,9.53
2023-05-04T00:25:16.582Z,9.48
2023-05-04T00:28:18.053Z,9.41
2023-05-04T00:31:19.723Z,9.44
2023-05-04T00:34:21.655Z,9.51
2023-05-04T00:37:23.385Z,9.37
2023-05-04T00:40:25.494Z,9.22
2023-05-04T00:43:27.065Z,9.17
2023-05-04T00:46:28.601Z,9.20
2023-05-04T00:49:30.126Z,9.17
2023-05-04T00:52:31.790Z,9.10
2023-05-04T00:55:34.225Z,9.06
2023-05-04T00:58:35.816Z,8.94
2023-05-04T01:01:37.501Z,8.90
2023-05-04T01:04:39.405Z,8.86
2023-05-04T01:08:02.167Z,8.81
2023-05-04T01:11:27.041Z,8.87
2023-05-04T01:14:30.220Z,8.92
2023-05-04T01:17:31.757Z,8.89
2023-05-04T01:20:33.650Z,8.93
2023-05-04T01:23:35.669Z,8.90
2023-05-04T01:26:43.278Z,8.77
2023-05-04T01:29:47.848Z,8.72
2023-05-04T01:32:51.246Z,8.75
2023-05-04T01:35:52.840Z,8.77
2023-05-04T01:38:55.358Z,8.69
2023-05-04T01:41:57.167Z,8.69
2023-05-04T01:44:58.722Z,8.57
2023-05-04T01:48:16.875Z,8.51
2023-05-04T01:51:34.829Z,8.41
2023-05-04T01:54:36.406Z,8.29
2023-05-04T01:57:38.841Z,8.25
2023-05-04T02:00:40.772Z,8.23
2023-05-04T02:03:42.520Z,8.20
2023-05-04T02:06:44.731Z,8.17
2023-05-04T02:09:46.222Z,8.08
2023-05-04T02:12:47.878Z,8.14
2023-05-04T02:15:49.425Z,8.13
2023-05-04T02:18:52.320Z,8.14
2023-05-04T02:21:53.809Z,8.12
2023-05-04T02:24:56.593Z,8.12
2023-05-04T02:27:58.062Z,8.07
2023-05-04T02:30:59.535Z,8.10
2023-05-04T02:34:01.803Z,8.22
2023-05-04T02:37:07.207Z,8.25
2023-05-04T02:40:10.308Z,8.22
2023-05-04T02:43:11.857Z,8.23
2023-05-04T02:46:13.828Z,8.09
2023-05-04T02:49:15.376Z,8.04
2023-05-04T02:52:16.792Z,7.97
2023-05-04T02:55:18.433Z,7.98
2023-05-04T02:58:19.872Z,7.92
2023-05-04T03:01:21.502Z,7.92
2023-05-04T03:04:23.111Z,7.86
2023-05-04T03:07:26.175Z,7.74
2023-05-04T03:10:27.652Z,7.71
2023-05-04T03:13:29.090Z,7.62
2023-05-04T03:16:30.788Z,7.59
2023-05-04T03:19:32.330Z,7.54
2023-05-04T03:22:33.865Z,7.52
2023-05-04T03:25:36.157Z,7.52
2023-05-04T03:28:38.181Z,7.55
2023-05-04T03:31:40.731Z,7.49
2023-05-04T03:34:42.791Z,7.51
2023-05-04T03:37:44.484Z,7.55
2023-05-04T03:40:46.047Z,7.57
2023-05-04T03:43:48.595Z,7.55
2023-05-04T03:46:50.105Z,7.48
2023-05-04T03:49:51.843Z,7.45
2023-05-04T03:52:53.419Z,7.38
2023-05-04T03:55:57.453Z,7.38
2023-05-04T03:58:59.282Z,7.36
2023-05-04T04:02:04.813Z,7.31
2023-05-04T04:05:07.057Z,7.30
2023-05-04T04:08:10.444Z,7.38
2023-05-04T04:11:12.112Z,7.45
2023-05-04T04:14:13.543Z,7.47
2023-05-04T04:17:15.238Z,7.44
2023-05-04T04:20:16.962Z,7.49
2023-05-04T04:23:19.323Z,7.51
2023-05-04T04:26:21.609Z,7.50
2023-05-04T04:29:23.189Z,7.49
2023-05-04T04:32:24.740Z,7.52
2023-05-04T04:35:27.495Z,7.54
2023-05-04T04:38:29.031Z,7.64
2023-05-04T04:41:30.622Z,7.67
2023-05-04T04:44:32.084Z,7.69
2023-05-04T04:47:33.930Z,7.81
2023-05-04T04:50:38.608Z,7.82
2023-05-04T04:53:40.205Z,7.89
2023-05-04T04:56:41.778Z,7.92
2023-05-04T04:59:43.333Z,8.01
2023-05-04T05:02:45.652Z,8.02
2023-05-04T05:05:47.171Z,8.05
2023-05-04T05:08:49.782Z,8.15
2023-05-04T05:11:51.272Z,8.34
2023-05-04T05:14:52.728Z,8.38
2023-05-04T05:17:54.360Z,8.42
2023-05-04T05:20:56.515Z,8.60
2023-05-04T05:23:58.044Z,8.76
2023-05-04T05:27:00.348Z,8.93
2023-05-04T05:30:03.322Z,9.03
2023-05-04T05:33:05.698Z,9.09
2023-05-04T05:36:07.508Z,9.22
2023-05-04T05:39:08.979Z,9.39
2023-05-04T05:42:11.263Z,9.54
2023-05-04T05:45:12.829Z,9.68
2023-05-04T05:48:14.446Z,9.74
2023-05-04T05:51:16.422Z,9.85
2023-05-04T05:54:17.939Z,9.94
2023-05-04T05:57:20.641Z,10.08
2023-05-04T06:00:22.302Z,10.20
2023-05-04T06:03:24.027Z,10.33
2023-05-04T06:06:25.766Z,10.46
2023-05-04T06:09:27.867Z,10.58
2023-05-04T06:12:29.350Z,10.79
2023-05-04T06:15:30.958Z,10.88
2023-05-04T06:18:32.881Z,11.08
2023-05-04T06:21:34.386Z,11.23
2023-05-04T06:24:35.815Z,11.40
2023-05-04T06:27:37.400Z,11.46
2023-05-04T06:30:38.881Z,11.62
2023-05-04T06:33:40.474Z,11.77
2023-05-04T06:36:42.272Z,11.83
2023-05-04T06:39:43.723Z,11.87
2023-05-04T06:42:45.223Z,11.93
2023-05-04T06:45:46.758Z,12.08
2023-05-04T06:48:48.444Z,12.35
2023-05-04T06:51:50.045Z,12.43
2023-05-04T06:54:51.692Z,12.64
2023-05-04T06:57:53.107Z,12.76
2023-05-04T07:00:54.925Z,12.90
2023-05-04T07:03:58.323Z,13.19
2023-05-04T07:06:59.853Z,13.36
2023-05-04T07:10:01.632Z,13.40
2023-05-04T07:13:03.485Z,13.41
2023-05-04T07:16:07.566Z,13.54
2023-05-04T07:19:09.105Z,13.89
2023-05-04T07:22:10.545Z,13.95
2023-05-04T07:25:12.026Z,14.10
2023-05-04T07:28:13.495Z,14.20
2023-05-04T07:31:15.904Z,14.30
2023-05-04T07:34:17.467Z,14.50
2023-05-04T07:37:19.098Z,14.65
2023-05-04T07:40:21.488Z,14.72
2023-05-04T07:43:23.760Z,14.83
2023-05-04T07:46:25.266Z,14.98
2023-05-04T07:49:27.089Z,15.16
2023-05-04T07:52:28.684Z,15.36
2023-05-04T07:55:30.849Z,15.45
2023-05-04T07:58:32.287Z,15.72
2023-05-04T08:01:33.822Z,15.67
2023-05-04T08:04:35.590Z,15.69
2023-05-04T08:07:37.386Z,15.68
2023-05-04T08:10:39.045Z,15.61
2023-05-04T08:13:41.183Z,15.62
2023-05-04T08:16:42.711Z,15.59
2023-05-04T08:19:44.619Z,15.71
2023-05-04T08:22:46.388Z,15.84
2023-05-04T08:25:47.908Z,16.00
2023-05-04T08:28:49.882Z,15.81
2023-05-04T08:31:51.454Z,15.66
2023-05-04T08:34:52.963Z,15.62
2023-05-04T08:37:54.694Z,15.61
2023-05-04T08:40:56.234Z,15.69
2023-05-04T08:43:58.719Z,15.85
2023-05-04T08:47:03.485Z,16.04
2023-05-04T08:50:07.387Z,16.15
2023-05-04T08:53:13.434Z,16.31
2023-05-04T08:56:16.663Z,16.38
2023-05-04T08:59:23.339Z,16.48
2023-05-04T09:02:24.926Z,16.51
2023-05-04T09:05:27.861Z,16.67
2023-05-04T09:08:29.525Z,16.82
2023-05-04T09:11:31.219Z,16.94
2023-05-04T09:14:34.676Z,16.98
2023-05-04T09:17:41.980Z,17.05
2023-05-04T09:20:49.287Z,17.09
2023-05-04T09:23:54.116Z,17.23
2023-05-04T09:26:56.053Z,17.41
2023-05-04T09:29:57.636Z,17.48
2023-05-04T09:32:59.580Z,17.63
2023-05-04T09:36:17.196Z,17.83
2023-05-04T09:39:19.269Z,18.03
2023-05-04T09:42:21.970Z,18.14
2023-05-04T09:45:23.452Z,18.47
2023-05-04T09:48:34.002Z,18.66
2023-05-04T09:51:35.832Z,18.76
2023-05-04T09:54:43.472Z,18.78
2023-05-04T09:57:46.218Z,19.10
2023-05-04T10:00:47.765Z,19.28
2023-05-04T10:03:49.354Z,19.46
2023-05-04T10:06:50.951Z,19.53
2023-05-04T10:09:53.407Z,19.70
2023-05-04T10:12:54.997Z,19.85
2023-05-04T10:16:14.143Z,19.96
2023-05-04T10:19:50.135Z,20.18
2023-05-04T10:23:29.261Z,20.44
2023-05-04T10:26:55.272Z,20.63
2023-05-04T10:29:56.829Z,20.61
2023-05-04T10:32:59.293Z,20.66
2023-05-04T10:36:01.003Z,20.73
2023-05-04T10:39:02.494Z,20.85
2023-05-04T10:42:06.478Z,20.99
2023-05-04T10:45:09.379Z,20.95
2023-05-04T10:48:11.059Z,20.95
2023-05-04T10:51:19.722Z,21.16
2023-05-04T10:54:21.254Z,21.18
2023-05-04T10:57:22.802Z,21.34
2023-05-04T11:00:36.457Z,21.51
2023-05-04T11:03:40.984Z,21.46
2023-05-04T11:06:42.566Z,21.49
2023-05-04T11:09:44.497Z,21.54
2023-05-04T11:12:46.009Z,21.49
2023-05-04T11:15:48.887Z,21.58
2023-05-04T11:18:50.612Z,21.60
2023-05-04T11:21:52.160Z,21.78
2023-05-04T11:25:02.210Z,21.95
2023-05-04T11:28:04.071Z,22.13
2023-05-04T11:31:15.544Z,22.22
2023-05-04T11:34:20.993Z,22.26
2023-05-04T11:37:23.299Z,22.33
2023-05-04T11:40:26.824Z,22.44
2023-05-04T11:43:28.510Z,22.39
2023-05-04T11:46:32.470Z,22.42
2023-05-04T11:49:33.916Z,22.51
2023-05-04T11:52:36.463Z,22.56
2023-05-04T11:55:38.573Z,22.71
2023-05-04T11:58:40.577Z,22.79
2023-05-04T12:01:42.077Z,22.80
2023-05-04T12:04:43.820Z,22.73
2023-05-04T12:07:45.338Z,22.79
2023-05-04T12:10:46.810Z,22.92
2023-05-04T12:13:49.769Z,23.15
2023-05-04T12:16:56.125Z,23.27
2023-05-04T12:19:57.582Z,23.31
2023-05-04T12:23:05.979Z,23.38
2023-05-04T12:26:08.952Z,23.52
2023-05-04T12:29:10.409Z,23.42
2023-05-04T12:32:12.075Z,23.48
2023-05-04T12:35:13.691Z,23.57
2023-05-04T12:38:15.569Z,23.75
2023-05-04T12:41:17.066Z,23.89
2023-05-04T12:44:18.947Z,23.95
2023-05-04T12:47:23.867Z,24.10
2023-05-04T12:50:25.337Z,24.16
2023-05-04T12:53:32.056Z,24.25
2023-05-04T12:56:33.956Z,24.39
2023-05-04T12:59:35.435Z,24.52
2023-05-04T13:02:37.752Z,24.58
2023-05-04T13:05:39.381Z,24.69
2023-05-04T13:08:40.869Z,24.71
2023-05-04T13:11:42.287Z,24.77
2023-05-04T13:14:43.983Z,24.99
2023-05-04T13:17:45.540Z,25.24
2023-05-04T13:20:47.130Z,25.41
2023-05-04T13:23:48.690Z,25.67
2023-05-04T13:26:50.191Z,25.45
2023-05-04T13:29:51.714Z,25.55
2023-05-04T13:32:53.216Z,25.64
2023-05-04T13:35:56.848Z,26.05
2023-05-04T13:38:58.388Z,26.20
2023-05-04T13:41:59.871Z,26.28
2023-05-04T13:45:01.350Z,26.37
2023-05-04T13:48:03.109Z,26.34
2023-05-04T13:51:04.647Z,26.50
2023-05-04T13:54:06.101Z,26.34
2023-05-04T13:57:07.670Z,26.59
2023-05-04T14:00:10.067Z,26.88
2023-05-04T14:03:14.305Z,26.81
2023-05-04T14:06:15.875Z,26.93
2023-05-04T14:09:18.445Z,26.98
2023-05-04T14:12:22.272Z,27.32
2023-05-04T14:15:23.885Z,27.34
2023-05-04T14:18:25.486Z,27.33
2023-05-04T14:21:27.948Z,27.36
2023-05-04T14:24:29.810Z,27.45
2023-05-04T14:27:34.359Z,27.39
2023-05-04T14:30:36.668Z,27.52
2023-05-04T14:33:41.073Z,27.55
2023-05-04T14:36:42.545Z,27.53
2023-05-04T14:39:44.568Z,27.53
2023-05-04T14:42:46.037Z,27.98
2023-05-04T14:45:47.530Z,28.14
2023-05-04T14:48:49.016Z,28.00
2023-05-04T14:51:50.486Z,27.98
2023-05-04T14:54:52.138Z,28.01
2023-05-04T14:57:53.676Z,28.18
2023-05-04T15:00:55.165Z,28.41
2023-05-04T15:03:56.794Z,28.29
2023-05-04T15:06:58.464Z,28.14
2023-05-04T15:09:59.966Z,28.22
2023-05-04T15:13:01.712Z,27.95
2023-05-04T15:16:04.535Z,28.00
2023-05-04T15:19:06.946Z,28.09
2023-05-04T15:22:08.544Z,27.98
2023-05-04T15:25:10.245Z,28.30
2023-05-04T15:28:11.984Z,28.34
2023-05-04T15:31:13.878Z,28.49
2023-05-04T15:34:18.341Z,28.58
2023-05-04T15:37:20.140Z,28.15
2023-05-04T15:40:21.635Z,27.99
2023-05-04T15:43:23.100Z,27.46
2023-05-04T15:46:24.631Z,27.37
2023-05-04T15:49:26.779Z,27.58
2023-05-04T15:52:28.256Z,28.20
2023-05-04T15:55:29.741Z,28.66
2023-05-04T15:58:31.370Z,28.94
2023-05-04T16:01:33.752Z,29.37
2023-05-04T16:04:35.854Z,30.06
2023-05-04T16:07:37.406Z,31.55
2023-05-04T16:10:38.910Z,34.10
2023-05-04T16:13:40.507Z,35.88
2023-05-04T16:16:42.446Z,37.10
2023-05-04T16:19:43.978Z,38.44
2023-05-04T16:22:45.573Z,39.44
2023-05-04T16:25:47.094Z,39.73
2023-05-04T16:28:48.662Z,40.31
2023-05-04T16:31:50.119Z,39.98
2023-05-04T16:34:51.909Z,38.33
2023-05-04T16:37:53.613Z,35.74
2023-05-04T16:40:55.104Z,35.52
2023-05-04T16:43:56.752Z,35.96
2023-05-04T16:46:59.499Z,37.30
2023-05-04T16:50:01.012Z,36.98
2023-05-04T16:53:02.562Z,37.69
2023-05-04T16:56:04.364Z,38.12
2023-05-04T16:59:05.839Z,37.91
2023-05-04T17:02:08.642Z,36.98
2023-05-04T17:05:10.505Z,36.34
2023-05-04T17:08:12.604Z,37.24
2023-05-04T17:11:14.095Z,37.47
2023-05-04T17:14:16.069Z,37.64
2023-05-04T17:17:17.852Z,36.32
2023-05-04T17:20:19.715Z,34.60
2023-05-04T17:23:21.775Z,33.23
2023-05-04T17:26:23.287Z,32.14
2023-05-04T17:29:25.145Z,30.58
2023-05-04T17:32:26.710Z,29.12
2023-05-04T17:35:28.287Z,28.04
2023-05-04T17:38:29.836Z,27.49
2023-05-04T17:41:31.431Z,27.66
2023-05-04T17:44:32.975Z,27.57
2023-05-04T17:47:34.442Z,27.32
2023-05-04T17:50:36.204Z,27.55
2023-05-04T17:53:37.727Z,29.18
2023-05-04T17:56:39.280Z,31.04
2023-05-04T17:59:40.972Z,30.44
2023-05-04T18:02:42.686Z,28.60
2023-05-04T18:05:46.177Z,26.89
2023-05-04T18:08:47.613Z,25.65
2023-05-04T18:11:49.138Z,24.96
2023-05-04T18:14:51.222Z,24.49
2023-05-04T18:17:52.987Z,24.07
2023-05-04T18:20:57.682Z,23.67
2023-05-04T18:23:59.177Z,23.15
2023-05-04T18:27:01.844Z,22.79
2023-05-04T18:30:05.179Z,22.46
2023-05-04T18:33:07.002Z,22.19
2023-05-04T18:36:08.546Z,21.96
2023-05-04T18:39:10.108Z,21.72
2023-05-04T18:42:11.699Z,21.42
2023-05-04T18:45:13.368Z,21.20
2023-05-04T18:48:14.873Z,21.05
2023-05-04T18:51:17.691Z,20.79
2023-05-04T18:54:19.168Z,20.60
2023-05-04T18:57:20.726Z,20.39
2023-05-04T19:00:23.013Z,20.14
2023-05-04T19:03:24.936Z,19.76
2023-05-04T19:06:26.461Z,19.64
2023-05-04T19:09:27.997Z,19.47
2023-05-04T19:12:29.551Z,19.28
2023-05-04T19:15:33.735Z,19.18
2023-05-04T19:18:35.510Z,19.01
2023-05-04T19:21:36.996Z,18.78
2023-05-04T19:24:38.592Z,18.77
2023-05-04T19:27:40.110Z,18.70
2023-05-04T19:30:41.649Z,18.67
2023-05-04T19:33:48.387Z,18.62
2023-05-04T19:36:50.495Z,18.48
2023-05-04T19:39:52.269Z,18.43
2023-05-04T19:42:53.733Z,18.26
2023-05-04T19:45:55.802Z,18.23
2023-05-04T19:48:59.154Z,18.19
2023-05-04T19:52:01.435Z,18.19
2023-05-04T19:55:03.211Z,18.11
2023-05-04T19:58:04.863Z,17.87
2023-05-04T20:01:06.428Z,17.91
2023-05-04T20:04:08.370Z,17.87
2023-05-04T20:07:09.999Z,17.88
2023-05-04T20:10:11.961Z,17.93
2023-05-04T20:13:13.739Z,17.92
2023-05-04T20:16:15.903Z,17.81
2023-05-04T20:19:17.510Z,17.80
2023-05-04T20:22:19.032Z,17.70
2023-05-04T20:25:20.627Z,17.48
2023-05-04T20:28:22.931Z,17.42
2023-05-04T20:31:24.451Z,17.40
2023-05-04T20:34:26.077Z,17.35
2023-05-04T20:37:27.637Z,17.29
2023-05-04T20:40:29.136Z,17.22
2023-05-04T20:43:30.695Z,17.16
2023-05-04T20:46:32.270Z,17.01
2023-05-04T20:49:33.961Z,16.94
2023-05-04T20:52:35.557Z,16.82
2023-05-04T20:55:37.191Z,16.73
2023-05-04T20:58:39.638Z,16.64
2023-05-04T21:01:41.338Z,16.54
2023-05-04T21:04:46.367Z,16.43
2023-05-04T21:07:47.866Z,16.33
2023-05-04T21:10:49.470Z,16.23
2023-05-04T21:13:52.152Z,16.20
2023-05-04T21:16:53.637Z,16.19
2023-05-04T21:19:55.081Z,16.08
2023-05-04T21:22:56.582Z,16.02
2023-05-04T21:26:02.430Z,15.86
2023-05-04T21:29:03.916Z,15.82
2023-05-04T21:32:05.993Z,15.67
2023-05-04T21:35:07.901Z,15.65
2023-05-04T21:38:09.324Z,15.54
2023-05-04T21:41:15.290Z,15.45
2023-05-04T21:44:16.915Z,15.42
2023-05-04T21:47:18.332Z,15.38
2023-05-04T21:50:19.838Z,15.27
2023-05-04T21:53:21.261Z,15.14
2023-05-04T21:56:22.786Z,15.09
2023-05-04T21:59:24.610Z,15.06
2023-05-04T22:02:26.187Z,15.03
2023-05-04T22:05:27.911Z,15.07
2023-05-04T22:08:29.807Z,15.08
2023-05-04T22:11:31.414Z,15.11
2023-05-04T22:14:33.174Z,15.13
2023-05-04T22:17:34.626Z,15.16
2023-05-04T22:20:36.972Z,15.13
2023-05-04T22:23:38.453Z,15.08
2023-05-04T22:26:40.862Z,15.05
2023-05-04T22:29:42.336Z,15.02
2023-05-04T22:32:44.668Z,14.96
2023-05-04T22:35:46.325Z,14.86
2023-05-04T22:38:50.917Z,14.73
2023-05-04T22:41:52.406Z,14.69
2023-05-04T22:44:53.861Z,14.68
2023-05-04T22:47:55.769Z,14.59
2023-05-04T22:50:57.442Z,14.58
2023-05-04T22:53:58.936Z,14.50
2023-05-04T22:57:01.311Z,14.40
2023-05-04T23:00:05.551Z,14.31
2023-05-04T23:03:07.647Z,14.27
2023-05-04T23:06:09.374Z,14.23
2023-05-04T23:09:11.580Z,14.23
2023-05-04T23:12:13.780Z,14.27
2023-05-04T23:15:15.336Z,14.22
2023-05-04T23:18:16.850Z,14.10
2023-05-04T23:21:18.298Z,13.98
2023-05-04T23:24:19.812Z,13.97
2023-05-04T23:27:21.341Z,13.86
2023-05-04T23:30:22.820Z,13.85
2023-05-04T23:33:24.311Z,13.76
2023-05-04T23:36:25.794Z,13.74
2023-05-04T23:39:27.394Z,13.70
2023-05-04T23:42:28.804Z,13.64
2023-05-04T23:45:30.377Z,13.54
2023-05-04T23:48:32.440Z,13.44
2023-05-04T23:51:33.938Z,13.38
2023-05-04T23:54:35.356Z,13.35
2023-05-04T23:57:36.839Z,13.26
